createdAt,value
2023-05-05T00:00:49.902Z,16.4909
2023-05-05T00:01:52.355Z,16.6207
2023-05-05T00:02:54.866Z,16.5859
2023-05-05T00:03:57.574Z,16.5775
2023-05-05T00:05:00.008Z,16.7286
2023-05-05T00:06:02.459Z,16.7364
2023-05-05T00:07:04.909Z,16.8681
2023-05-05T00:08:07.577Z,17.2542
2023-05-05T00:09:10.054Z,17.4221
2023-05-05T00:10:12.486Z,17.1552
2023-05-05T00:11:15.259Z,16.7986
2023-05-05T00:12:17.761Z,16.6117
2023-05-05T00:13:20.364Z,16.4765
2023-05-05T00:14:22.811Z,16.3423
2023-05-05T00:15:25.289Z,16.2795
2023-05-05T00:16:28.047Z,16.1754
2023-05-05T00:17:30.516Z,16.0864
2023-05-05T00:18:33.019Z,15.9931
2023-05-05T00:19:35.473Z,15.9385
2023-05-05T00:20:37.953Z,16.0046
2023-05-05T00:21:40.429Z,16.1518
2023-05-05T00:22:42.930Z,16.1783
2023-05-05T00:23:45.406Z,16.1373
2023-05-05T00:24:47.902Z,16.0901
2023-05-05T00:25:50.773Z,16.2127
2023-05-05T00:26:53.276Z,16.2377
2023-05-05T00:27:55.783Z,16.1940
2023-05-05T00:28:58.280Z,16.1160
2023-05-05T00:30:00.780Z,16.1146
2023-05-05T00:31:03.283Z,16.1508
2023-05-05T00:32:05.787Z,16.1001
2023-05-05T00:33:08.353Z,16.0670
2023-05-05T00:34:10.898Z,16.1708
2023-05-05T00:35:13.392Z,16.0740
2023-05-05T00:36:15.861Z,16.0480
2023-05-05T00:37:18.371Z,15.9523
2023-05-05T00:38:21.101Z,15.9383
2023-05-05T00:39:23.613Z,15.9261
2023-05-05T00:40:26.134Z,15.9005
2023-05-05T00:41:28.681Z,15.9873
2023-05-05T00:42:31.202Z,15.9301
2023-05-05T00:43:33.766Z,15.9850
2023-05-05T00:44:36.306Z,15.9708
2023-05-05T00:45:38.796Z,15.9931
2023-05-05T00:46:41.435Z,15.9179
2023-05-05T00:47:43.941Z,15.8964
2023-05-05T00:48:46.419Z,15.8057
2023-05-05T00:49:48.916Z,15.7677
2023-05-05T00:50:51.388Z,15.7211
2023-05-05T00:51:53.840Z,15.6733
2023-05-05T00:52:56.317Z,15.6262
2023-05-05T00:53:58.823Z,15.5843
2023-05-05T00:55:01.318Z,15.5120
2023-05-05T00:56:03.762Z,15.4994
2023-05-05T00:57:06.219Z,15.4753
2023-05-05T00:58:08.686Z,15.4540
2023-05-05T00:59:11.148Z,15.4946
2023-05-05T01:00:13.631Z,15.4654
2023-05-05T01:01:16.100Z,15.4581
2023-05-05T01:02:18.539Z,15.4365
2023-05-05T01:03:21.051Z,15.3848
2023-05-05T01:04:23.550Z,15.3463
2023-05-05T01:05:25.974Z,15.3344
2023-05-05T01:06:28.462Z,15.2682
2023-05-05T01:07:30.907Z,15.2187
2023-05-05T01:08:33.373Z,15.1562
2023-05-05T01:09:35.893Z,15.1550
2023-05-05T01:10:38.325Z,15.2509
2023-05-05T01:11:40.824Z,15.3705
2023-05-05T01:12:43.333Z,15.5343
2023-05-05T01:13:45.797Z,15.6721
2023-05-05T01:14:48.268Z,15.5519
2023-05-05T01:15:50.773Z,15.4286
2023-05-05T01:16:53.197Z,15.3970
2023-05-05T01:17:55.699Z,15.2883
2023-05-05T01:18:58.185Z,15.2478
2023-05-05T01:20:00.745Z,15.1705
2023-05-05T01:21:03.224Z,15.2077
2023-05-05T01:22:05.700Z,15.1947
2023-05-05T01:23:08.178Z,15.1975
2023-05-05T01:24:10.917Z,15.1762
2023-05-05T01:25:13.364Z,15.0818
2023-05-05T01:26:15.788Z,15.0020
2023-05-05T01:27:18.257Z,14.9616
2023-05-05T01:28:20.739Z,14.9327
2023-05-05T01:29:23.242Z,14.8587
2023-05-05T01:30:25.709Z,14.8407
2023-05-05T01:31:28.248Z,14.8388
2023-05-05T01:32:30.716Z,14.8201
2023-05-05T01:33:33.109Z,14.8422
2023-05-05T01:34:35.628Z,14.8028
2023-05-05T01:35:38.075Z,14.7474
2023-05-05T01:36:40.528Z,14.6972
2023-05-05T01:37:43.020Z,14.6957
2023-05-05T01:38:45.711Z,14.6668
2023-05-05T01:39:48.166Z,14.6453
2023-05-05T01:40:50.635Z,14.6610
2023-05-05T01:41:53.066Z,14.6247
2023-05-05T01:42:55.565Z,14.6262
2023-05-05T01:43:58.038Z,14.6124
2023-05-05T01:45:00.509Z,14.5717
2023-05-05T01:46:03.236Z,14.5590
2023-05-05T01:47:05.741Z,14.5245
2023-05-05T01:48:08.189Z,14.5292
2023-05-05T01:49:10.648Z,14.5177
2023-05-05T01:50:13.112Z,14.5816
2023-05-05T01:51:15.573Z,14.6889
2023-05-05T01:52:18.044Z,14.7560
2023-05-05T01:53:20.740Z,14.8209
2023-05-05T01:54:23.185Z,14.8526
2023-05-05T01:55:25.645Z,14.8853
2023-05-05T01:56:28.366Z,14.9226
2023-05-05T01:57:30.815Z,15.0095
2023-05-05T01:58:33.517Z,15.0959
2023-05-05T01:59:36.014Z,15.0725
2023-05-05T02:00:38.494Z,15.1317
2023-05-05T02:01:41.057Z,15.0648
2023-05-05T02:02:43.576Z,15.0007
2023-05-05T02:03:46.128Z,15.0054
2023-05-05T02:04:48.600Z,15.0821
2023-05-05T02:05:51.388Z,15.0758
2023-05-05T02:06:53.837Z,14.9988
2023-05-05T02:07:56.329Z,14.9751
2023-05-05T02:08:58.838Z,14.9555
2023-05-05T02:10:01.357Z,15.5139
2023-05-05T02:11:03.915Z,16.1507
2023-05-05T02:12:06.416Z,16.1386
2023-05-05T02:13:09.016Z,15.7679
2023-05-05T02:14:11.762Z,15.4878
2023-05-05T02:15:14.281Z,15.5239
2023-05-05T02:16:16.901Z,15.4993
2023-05-05T02:17:19.472Z,15.4291
2023-05-05T02:18:21.949Z,15.3863
2023-05-05T02:19:22.321Z,15.3122
2023-05-05T02:20:24.848Z,15.2505
2023-05-05T02:21:27.684Z,15.2875
2023-05-05T02:22:30.140Z,15.2547
2023-05-05T02:23:32.683Z,15.0896
2023-05-05T02:24:35.170Z,15.1116
2023-05-05T02:25:37.638Z,15.0738
2023-05-05T02:26:40.400Z,14.9798
2023-05-05T02:27:42.872Z,14.9413
2023-05-05T02:28:45.633Z,14.9278
2023-05-05T02:29:48.080Z,14.8788
2023-05-05T02:30:50.745Z,14.7976
2023-05-05T02:31:53.472Z,14.7541
2023-05-05T02:32:55.979Z,14.6787
2023-05-05T02:33:58.782Z,14.6236
2023-05-05T02:35:01.254Z,14.6509
2023-05-05T02:36:03.959Z,14.7048
2023-05-05T02:37:06.411Z,14.7583
2023-05-05T02:38:08.823Z,14.7005
2023-05-05T02:39:11.585Z,14.6402
2023-05-05T02:40:14.063Z,14.6233
2023-05-05T02:41:16.824Z,14.6200
2023-05-05T02:42:19.244Z,14.5764
2023-05-05T02:43:21.733Z,14.5344
2023-05-05T02:44:24.533Z,14.5097
2023-05-05T02:45:26.937Z,14.4775
2023-05-05T02:46:29.700Z,14.3990
2023-05-05T02:47:32.147Z,14.3829
2023-05-05T02:48:34.620Z,14.3446
2023-05-05T02:49:37.314Z,14.3231
2023-05-05T02:50:39.812Z,14.3561
2023-05-05T02:51:42.275Z,14.3724
2023-05-05T02:52:44.719Z,14.3817
2023-05-05T02:53:47.165Z,14.3675
2023-05-05T02:54:49.595Z,14.3262
2023-05-05T02:55:52.061Z,14.3025
2023-05-05T02:56:54.490Z,14.2700
2023-05-05T02:57:56.917Z,14.2197
2023-05-05T02:58:59.381Z,14.1984
2023-05-05T03:00:01.835Z,14.1467
2023-05-05T03:01:04.296Z,14.1253
2023-05-05T03:02:07.079Z,14.1206
2023-05-05T03:03:09.595Z,14.1371
2023-05-05T03:04:12.072Z,14.1459
2023-05-05T03:05:14.481Z,14.1263
2023-05-05T03:06:17.046Z,14.1110
2023-05-05T03:07:19.499Z,14.1560
2023-05-05T03:08:21.916Z,14.2259
2023-05-05T03:09:24.394Z,14.2078
2023-05-05T03:10:26.841Z,14.1589
2023-05-05T03:11:29.300Z,14.0927
2023-05-05T03:12:31.779Z,14.0482
2023-05-05T03:13:34.189Z,14.1161
2023-05-05T03:14:36.661Z,14.0898
2023-05-05T03:15:39.111Z,14.0190
2023-05-05T03:16:41.638Z,14.0074
2023-05-05T03:17:44.142Z,14.0033
2023-05-05T03:18:46.602Z,14.0300
2023-05-05T03:19:49.062Z,14.0132
2023-05-05T03:20:51.491Z,14.0754
2023-05-05T03:21:53.949Z,14.1775
2023-05-05T03:22:56.380Z,14.2021
2023-05-05T03:23:58.836Z,14.3435
2023-05-05T03:25:01.287Z,14.4516
2023-05-05T03:26:03.739Z,14.4360
2023-05-05T03:27:06.389Z,14.4008
2023-05-05T03:28:08.804Z,14.3413
2023-05-05T03:29:11.234Z,14.3346
2023-05-05T03:30:13.665Z,14.3997
2023-05-05T03:31:16.152Z,14.4462
2023-05-05T03:32:18.601Z,14.5281
2023-05-05T03:33:21.017Z,14.5824
2023-05-05T03:34:23.487Z,14.6047
2023-05-05T03:35:25.929Z,14.5640
2023-05-05T03:36:29.502Z,14.5793
2023-05-05T03:37:32.018Z,14.5962
2023-05-05T03:38:34.566Z,14.5741
2023-05-05T03:39:36.986Z,14.5347
2023-05-05T03:40:44.196Z,14.4996
2023-05-05T03:41:40.710Z,14.4531
2023-05-05T03:42:43.152Z,14.4679
2023-05-05T03:43:45.816Z,14.4696
2023-05-05T03:44:48.294Z,14.5026
2023-05-05T03:45:50.781Z,14.5843
2023-05-05T03:46:51.116Z,14.6338
2023-05-05T03:47:53.609Z,14.6562
2023-05-05T03:48:56.399Z,14.6289
2023-05-05T03:49:58.816Z,14.5567
2023-05-05T03:51:01.273Z,14.5086
2023-05-05T03:52:04.078Z,14.4514
2023-05-05T03:53:06.543Z,14.4949
2023-05-05T03:54:09.314Z,14.5430
2023-05-05T03:55:11.750Z,14.5424
2023-05-05T03:56:14.224Z,14.5543
2023-05-05T03:57:17.015Z,14.5460
2023-05-05T03:58:19.420Z,14.4813
2023-05-05T03:59:21.862Z,14.4684
2023-05-05T04:00:24.330Z,14.5216
2023-05-05T04:01:27.049Z,14.5958
2023-05-05T04:02:29.591Z,14.7359
2023-05-05T04:03:32.164Z,14.7912
2023-05-05T04:04:34.791Z,14.8419
2023-05-05T04:05:37.323Z,14.8691
2023-05-05T04:06:39.816Z,14.8172
2023-05-05T04:07:42.279Z,14.7642
2023-05-05T04:08:44.757Z,14.7167
2023-05-05T04:09:47.222Z,14.6817
2023-05-05T04:10:49.736Z,14.6501
2023-05-05T04:11:52.224Z,14.5615
2023-05-05T04:12:54.683Z,14.3944
2023-05-05T04:13:57.115Z,14.1319
2023-05-05T04:14:59.635Z,13.9037
2023-05-05T04:16:02.120Z,13.8404
2023-05-05T04:17:04.607Z,13.8534
2023-05-05T04:18:07.104Z,13.8192
2023-05-05T04:19:09.570Z,13.7887
2023-05-05T04:20:12.047Z,13.7502
2023-05-05T04:21:14.492Z,13.7636
2023-05-05T04:22:16.937Z,13.7878
2023-05-05T04:23:19.380Z,13.8762
2023-05-05T04:24:21.831Z,13.8602
2023-05-05T04:25:24.285Z,13.9192
2023-05-05T04:26:26.711Z,14.1445
2023-05-05T04:27:29.228Z,14.4673
2023-05-05T04:28:31.661Z,14.4318
2023-05-05T04:29:34.152Z,14.5670
2023-05-05T04:30:36.636Z,14.7007
2023-05-05T04:31:39.114Z,14.8081
2023-05-05T04:32:41.539Z,14.7228
2023-05-05T04:33:44.105Z,14.6288
2023-05-05T04:34:46.609Z,14.6811
2023-05-05T04:35:49.028Z,14.7926
2023-05-05T04:36:51.478Z,15.1913
2023-05-05T04:37:53.904Z,15.9587
2023-05-05T04:38:56.433Z,15.6314
2023-05-05T04:39:58.900Z,15.2371
2023-05-05T04:41:01.358Z,15.1594
2023-05-05T04:42:03.867Z,15.2951
2023-05-05T04:43:06.276Z,15.3177
2023-05-05T04:44:08.745Z,15.3050
2023-05-05T04:45:11.169Z,15.1911
2023-05-05T04:46:13.691Z,15.0970
2023-05-05T04:47:16.429Z,14.9417
2023-05-05T04:48:18.905Z,14.8488
2023-05-05T04:49:21.411Z,14.7048
2023-05-05T04:50:23.835Z,14.6420
2023-05-05T04:51:26.296Z,14.5625
2023-05-05T04:52:28.781Z,14.3864
2023-05-05T04:53:31.234Z,14.3071
2023-05-05T04:54:33.729Z,14.3039
2023-05-05T04:55:36.167Z,14.2909
2023-05-05T04:56:38.641Z,14.3578
2023-05-05T04:57:41.114Z,14.6170
2023-05-05T04:58:43.575Z,14.7599
2023-05-05T04:59:46.035Z,14.8779
2023-05-05T05:00:48.500Z,15.2346
2023-05-05T05:01:51.185Z,15.4416
2023-05-05T05:02:53.715Z,15.5866
2023-05-05T05:03:56.224Z,16.0088
2023-05-05T05:04:58.670Z,16.0519
2023-05-05T05:06:01.108Z,16.1629
2023-05-05T05:07:03.619Z,15.9570
2023-05-05T05:08:06.026Z,15.7743
2023-05-05T05:09:08.498Z,15.7555
2023-05-05T05:10:11.108Z,15.3735
2023-05-05T05:11:13.657Z,14.9647
2023-05-05T05:12:16.145Z,14.9046
2023-05-05T05:13:18.747Z,14.7843
2023-05-05T05:14:21.252Z,14.6726
2023-05-05T05:15:23.719Z,14.7053
2023-05-05T05:16:26.347Z,14.7104
2023-05-05T05:17:28.839Z,14.7120
2023-05-05T05:18:31.286Z,14.7519
2023-05-05T05:19:33.752Z,14.9687
2023-05-05T05:20:36.218Z,15.2244
2023-05-05T05:21:38.665Z,14.9878
2023-05-05T05:22:41.150Z,14.9838
2023-05-05T05:23:43.606Z,14.8549
2023-05-05T05:24:46.188Z,14.7686
2023-05-05T05:25:48.674Z,14.7178
2023-05-05T05:26:50.891Z,14.7390
2023-05-05T05:28:06.131Z,14.6792
2023-05-05T05:28:54.398Z,14.7440
2023-05-05T05:29:57.083Z,14.6537
2023-05-05T05:30:59.550Z,14.6569
2023-05-05T05:32:02.106Z,14.6083
2023-05-05T05:33:04.539Z,14.5841
2023-05-05T05:34:04.895Z,14.6123
2023-05-05T05:35:07.370Z,14.8909
2023-05-05T05:36:09.817Z,15.0700
2023-05-05T05:37:12.512Z,14.9569
2023-05-05T05:38:14.991Z,14.9602
2023-05-05T05:39:17.670Z,15.1771
2023-05-05T05:40:20.098Z,15.2074
2023-05-05T05:41:22.584Z,15.1454
2023-05-05T05:42:25.251Z,15.0984
2023-05-05T05:43:27.726Z,15.2426
2023-05-05T05:44:30.430Z,15.4207
2023-05-05T05:45:32.910Z,15.3889
2023-05-05T05:46:35.452Z,15.3513
2023-05-05T05:47:38.232Z,15.3359
2023-05-05T05:48:40.694Z,15.3838
2023-05-05T05:49:43.383Z,15.2616
2023-05-05T05:50:45.990Z,15.2619
2023-05-05T05:51:48.420Z,15.1919
2023-05-05T05:52:50.838Z,15.1631
2023-05-05T05:53:53.361Z,15.1931
2023-05-05T05:54:55.780Z,15.4352
2023-05-05T05:55:58.263Z,15.7024
2023-05-05T05:57:00.826Z,15.5758
2023-05-05T05:58:03.257Z,15.6564
2023-05-05T05:59:05.712Z,15.8997
2023-05-05T06:00:08.669Z,16.1961
2023-05-05T06:01:11.379Z,16.1959
2023-05-05T06:02:14.176Z,16.2038
2023-05-05T06:03:16.868Z,16.4169
2023-05-05T06:04:19.678Z,16.5501
2023-05-05T06:05:22.125Z,16.3822
2023-05-05T06:06:24.583Z,16.4495
2023-05-05T06:07:30.688Z,16.3233
2023-05-05T06:08:33.150Z,16.5596
2023-05-05T06:09:35.922Z,16.3896
2023-05-05T06:10:38.357Z,16.7306
2023-05-05T06:11:40.798Z,17.1843
2023-05-05T06:12:43.439Z,17.5272
2023-05-05T06:13:45.884Z,18.2318
2023-05-05T06:14:48.590Z,18.4629
2023-05-05T06:15:51.096Z,18.6921
2023-05-05T06:16:53.619Z,17.9835
2023-05-05T06:17:56.061Z,18.9093
2023-05-05T06:18:58.536Z,18.9170
2023-05-05T06:20:01.348Z,18.9909
2023-05-05T06:21:03.802Z,18.9636
2023-05-05T06:22:06.281Z,18.9142
2023-05-05T06:23:08.742Z,19.4264
2023-05-05T06:24:11.243Z,20.0874
2023-05-05T06:25:13.927Z,20.3692
2023-05-05T06:26:16.418Z,20.0081
2023-05-05T06:27:18.884Z,20.2812
2023-05-05T06:28:21.353Z,20.2611
2023-05-05T06:29:23.958Z,19.3950
2023-05-05T06:30:26.449Z,19.8378
2023-05-05T06:31:28.977Z,20.0170
2023-05-05T06:32:31.435Z,20.1565
2023-05-05T06:33:33.881Z,20.0099
2023-05-05T06:34:36.617Z,20.3062
2023-05-05T06:35:39.044Z,19.8957
2023-05-05T06:36:41.604Z,19.5224
2023-05-05T06:37:44.392Z,19.8023
2023-05-05T06:38:46.828Z,20.0296
2023-05-05T06:39:49.314Z,20.0151
2023-05-05T06:40:51.796Z,19.8164
2023-05-05T06:41:54.271Z,20.1882
2023-05-05T06:42:56.669Z,20.1391
2023-05-05T06:43:59.103Z,20.0316
2023-05-05T06:45:01.902Z,18.6968
2023-05-05T06:46:04.327Z,18.5611
2023-05-05T06:47:06.837Z,19.2115
2023-05-05T06:48:09.335Z,19.5010
2023-05-05T06:49:11.766Z,19.4250
2023-05-05T06:50:14.277Z,18.7929
2023-05-05T06:51:16.756Z,19.1041
2023-05-05T06:52:19.242Z,19.4495
2023-05-05T06:53:21.701Z,20.1538
2023-05-05T06:54:24.198Z,19.9614
2023-05-05T06:55:26.875Z,20.4161
2023-05-05T06:56:29.364Z,20.7708
2023-05-05T06:57:31.880Z,20.6942
2023-05-05T06:58:34.358Z,20.8010
2023-05-05T06:59:36.837Z,21.1547
2023-05-05T07:00:39.412Z,21.4951
2023-05-05T07:01:41.895Z,21.2634
2023-05-05T07:02:42.702Z,21.3037
2023-05-05T07:03:45.284Z,21.1103
2023-05-05T07:04:48.026Z,20.6200
2023-05-05T07:05:50.523Z,20.2928
2023-05-05T07:06:53.005Z,20.5789
2023-05-05T07:07:55.503Z,20.8685
2023-05-05T07:08:57.976Z,21.1587
2023-05-05T07:10:00.483Z,21.1585
2023-05-05T07:11:02.960Z,20.6821
2023-05-05T07:12:05.412Z,21.0178
2023-05-05T07:13:07.977Z,20.9812
2023-05-05T07:14:10.535Z,20.9004
2023-05-05T07:15:26.933Z,21.6442
2023-05-05T07:16:14.190Z,22.0528
2023-05-05T07:17:16.693Z,21.9879
2023-05-05T07:18:19.200Z,21.2306
2023-05-05T07:19:21.717Z,21.2177
2023-05-05T07:20:24.445Z,21.4910
2023-05-05T07:21:27.081Z,21.5506
2023-05-05T07:22:29.623Z,19.5627
2023-05-05T07:23:32.163Z,20.4612
2023-05-05T07:24:34.604Z,21.7017
2023-05-05T07:25:37.119Z,21.9098
2023-05-05T07:26:39.612Z,20.4553
2023-05-05T07:28:42.438Z,20.5373
2023-05-05T07:29:44.957Z,20.6841
2023-05-05T07:30:47.482Z,20.9007
2023-05-05T07:31:50.040Z,20.9904
2023-05-05T07:32:52.541Z,20.2996
2023-05-05T07:33:55.001Z,20.5863
2023-05-05T07:34:57.507Z,20.1560
2023-05-05T07:36:00.457Z,20.0140
2023-05-05T07:37:02.957Z,20.4601
2023-05-05T07:38:05.652Z,21.4170
2023-05-05T07:39:08.448Z,20.6217
2023-05-05T07:40:11.145Z,20.7220
2023-05-05T07:41:13.787Z,21.1750
2023-05-05T07:42:16.282Z,21.6205
2023-05-05T07:43:18.810Z,21.6222
2023-05-05T07:44:21.344Z,20.4388
2023-05-05T07:45:24.112Z,20.1632
2023-05-05T07:46:26.678Z,19.8981
2023-05-05T07:47:29.200Z,19.4427
2023-05-05T07:48:31.666Z,20.2883
2023-05-05T07:49:34.411Z,20.2801
2023-05-05T07:51:40.541Z,20.9045
2023-05-05T07:52:48.416Z,20.4308
2023-05-05T07:53:44.152Z,20.7462
2023-05-05T07:54:46.685Z,20.3345
2023-05-05T07:55:49.405Z,19.2816
2023-05-05T07:56:51.975Z,18.8502
2023-05-05T07:57:54.896Z,19.2889
2023-05-05T07:58:57.409Z,20.1541
2023-05-05T08:00:07.557Z,20.0635
2023-05-05T08:01:10.208Z,20.5105
2023-05-05T08:03:13.023Z,20.9207
2023-05-05T08:04:15.595Z,22.1341
2023-05-05T08:05:18.151Z,21.8091
2023-05-05T08:06:20.655Z,20.8338
2023-05-05T08:07:23.527Z,20.8266
2023-05-05T08:08:26.081Z,22.0260
2023-05-05T08:09:28.557Z,22.5064
2023-05-05T08:10:31.323Z,22.7274
2023-05-05T08:11:33.864Z,22.6988
2023-05-05T08:12:36.327Z,22.5230
2023-05-05T08:13:38.836Z,22.5793
2023-05-05T08:14:41.350Z,22.3840
2023-05-05T08:15:44.062Z,22.7384
2023-05-05T08:16:46.558Z,22.9010
2023-05-05T08:17:49.492Z,22.8312
2023-05-05T08:18:52.195Z,21.9797
2023-05-05T08:19:54.678Z,22.8768
2023-05-05T08:20:57.160Z,24.0322
2023-05-05T08:22:01.205Z,24.6268
2023-05-05T08:23:00.322Z,24.4509
2023-05-05T08:24:02.782Z,22.2931
2023-05-05T08:25:05.415Z,21.8928
2023-05-05T08:27:08.187Z,20.9314
2023-05-05T08:28:10.681Z,22.0652
2023-05-05T08:30:14.119Z,21.9054
2023-05-05T08:31:16.635Z,23.0587
2023-05-05T08:32:19.128Z,22.8619
2023-05-05T08:33:21.624Z,23.0087
2023-05-05T08:34:24.113Z,23.4080
2023-05-05T08:35:26.611Z,23.9576
2023-05-05T08:36:29.103Z,24.0823
2023-05-05T08:37:31.672Z,22.6905
2023-05-05T08:38:34.146Z,22.9589
2023-05-05T08:39:36.637Z,22.6203
2023-05-05T08:40:39.147Z,23.6597
2023-05-05T08:41:41.647Z,24.1004
2023-05-05T08:42:44.155Z,23.6556
2023-05-05T08:43:46.652Z,22.2882
2023-05-05T08:44:49.641Z,21.8503
2023-05-05T08:45:52.155Z,21.3084
2023-05-05T08:46:54.694Z,21.4147
2023-05-05T08:47:57.168Z,22.2598
2023-05-05T08:48:59.672Z,20.9826
2023-05-05T08:50:02.283Z,21.0379
2023-05-05T08:51:05.670Z,21.0910
2023-05-05T08:52:08.256Z,20.9147
2023-05-05T08:53:10.742Z,20.7864
2023-05-05T08:54:13.245Z,21.0308
2023-05-05T08:55:15.826Z,21.2427
2023-05-05T08:57:18.689Z,20.8046
2023-05-05T08:58:21.188Z,21.7593
2023-05-05T08:59:23.672Z,22.9448
2023-05-05T09:00:26.164Z,22.3633
2023-05-05T09:02:29.511Z,22.6861
2023-05-05T09:03:32.040Z,22.6017
2023-05-05T09:04:34.614Z,23.3153
2023-05-05T09:05:37.356Z,23.6347
2023-05-05T09:06:39.805Z,23.5172
2023-05-05T09:07:42.312Z,24.0311
2023-05-05T09:08:44.596Z,24.7362
2023-05-05T09:09:47.072Z,23.7800
2023-05-05T09:10:52.929Z,23.0715
2023-05-05T09:11:55.487Z,22.9211
2023-05-05T09:12:57.989Z,22.1586
2023-05-05T09:14:00.494Z,22.4137
2023-05-05T09:15:02.996Z,22.5565
2023-05-05T09:16:05.525Z,22.7021
2023-05-05T09:17:08.002Z,22.1352
2023-05-05T09:18:10.572Z,21.7984
2023-05-05T09:19:13.019Z,22.3446
2023-05-05T09:20:15.519Z,22.6118
2023-05-05T09:21:18.003Z,22.6605
2023-05-05T09:22:20.492Z,21.7235
2023-05-05T09:23:22.991Z,21.4075
2023-05-05T09:24:25.485Z,22.4245
2023-05-05T09:25:27.978Z,22.8631
2023-05-05T09:26:30.486Z,22.8383
2023-05-05T09:27:32.986Z,21.9904
2023-05-05T09:28:35.490Z,21.6827
2023-05-05T09:29:38.002Z,22.0249
2023-05-05T09:30:40.269Z,21.9864
2023-05-05T09:31:42.769Z,23.5079
2023-05-05T09:32:43.849Z,23.8435
2023-05-05T09:34:47.003Z,24.0622
2023-05-05T09:35:49.239Z,23.2782
2023-05-05T09:36:51.743Z,23.1846
2023-05-05T09:37:54.235Z,23.2977
2023-05-05T09:38:58.780Z,24.0077
2023-05-05T09:39:57.487Z,24.5178
2023-05-05T09:40:59.970Z,24.5779
2023-05-05T09:42:02.437Z,24.3469
2023-05-05T09:43:04.962Z,24.8175
2023-05-05T09:44:07.461Z,25.1745
2023-05-05T09:45:10.109Z,24.5443
2023-05-05T09:46:12.662Z,24.7174
2023-05-05T09:47:28.539Z,24.7091
2023-05-05T09:48:16.498Z,23.9164
2023-05-05T09:49:18.998Z,24.0318
2023-05-05T09:50:21.492Z,24.5724
2023-05-05T09:51:23.950Z,24.4860
2023-05-05T09:52:26.502Z,23.8411
2023-05-05T09:53:28.980Z,23.4397
2023-05-05T09:54:31.487Z,23.0373
2023-05-05T09:55:34.324Z,23.7170
2023-05-05T09:56:36.834Z,24.5446
2023-05-05T09:57:39.372Z,25.0663
2023-05-05T09:58:41.967Z,25.3652
2023-05-05T09:59:44.477Z,24.7575
2023-05-05T10:00:46.989Z,24.1117
2023-05-05T10:01:49.510Z,23.2758
2023-05-05T10:02:52.034Z,23.1012
2023-05-05T10:03:54.516Z,23.9006
2023-05-05T10:04:57.144Z,23.6421
2023-05-05T10:05:59.674Z,23.3237
2023-05-05T10:07:02.179Z,23.3463
2023-05-05T10:08:04.679Z,23.7622
2023-05-05T10:09:07.177Z,24.4981
2023-05-05T10:10:09.862Z,24.3751
2023-05-05T10:11:12.640Z,23.0249
2023-05-05T10:12:15.357Z,23.2495
2023-05-05T10:13:17.944Z,22.5243
2023-05-05T10:14:20.551Z,23.4116
2023-05-05T10:15:23.047Z,23.7168
2023-05-05T10:16:26.796Z,24.6954
2023-05-05T10:17:26.287Z,24.8997
2023-05-05T10:18:28.782Z,24.5297
2023-05-05T10:19:31.265Z,24.9337
2023-05-05T10:20:33.795Z,24.3096
2023-05-05T10:21:36.283Z,23.6684
2023-05-05T10:22:38.933Z,23.8624
2023-05-05T10:23:41.418Z,24.1216
2023-05-05T10:24:43.915Z,24.6725
2023-05-05T10:25:46.434Z,25.5482
2023-05-05T10:26:48.921Z,25.2952
2023-05-05T10:27:51.694Z,25.1835
2023-05-05T10:28:54.176Z,26.0838
2023-05-05T10:29:56.699Z,24.8027
2023-05-05T10:30:59.202Z,23.8442
2023-05-05T10:32:08.739Z,22.8719
2023-05-05T10:33:27.249Z,22.1468
2023-05-05T10:34:08.464Z,22.2389
2023-05-05T10:35:10.979Z,22.4932
2023-05-05T10:36:13.533Z,23.4685
2023-05-05T10:37:15.996Z,23.2867
2023-05-05T10:38:18.531Z,23.5167
2023-05-05T10:39:21.010Z,23.5448
2023-05-05T10:40:23.555Z,22.9404
2023-05-05T10:41:26.192Z,22.5069
2023-05-05T10:42:28.975Z,22.6501
2023-05-05T10:43:31.497Z,22.4633
2023-05-05T10:44:33.985Z,22.6873
2023-05-05T10:45:36.570Z,23.6271
2023-05-05T10:46:39.175Z,23.8912
2023-05-05T10:47:41.700Z,24.2313
2023-05-05T10:48:44.273Z,23.2311
2023-05-05T10:49:46.782Z,23.1551
2023-05-05T10:50:49.288Z,22.9570
2023-05-05T10:52:52.011Z,23.0755
2023-05-05T10:54:02.225Z,23.7514
2023-05-05T10:55:04.705Z,22.7167
2023-05-05T10:56:07.187Z,22.5386
2023-05-05T10:57:09.714Z,22.7071
2023-05-05T10:58:12.239Z,23.4410
2023-05-05T10:59:15.569Z,23.5683
2023-05-05T11:00:18.104Z,23.8048
2023-05-05T11:01:20.688Z,23.9729
2023-05-05T11:02:23.343Z,23.0414
2023-05-05T11:03:23.397Z,22.1532
2023-05-05T11:04:25.987Z,22.4327
2023-05-05T11:05:28.457Z,23.0073
2023-05-05T11:06:31.172Z,23.4943
2023-05-05T11:07:33.671Z,22.9263
2023-05-05T11:08:36.149Z,23.2469
2023-05-05T11:09:38.667Z,22.9980
2023-05-05T11:10:41.135Z,22.4283
2023-05-05T11:11:43.791Z,23.1451
2023-05-05T11:12:46.350Z,22.5295
2023-05-05T11:13:49.049Z,23.8241
2023-05-05T11:14:51.628Z,23.2712
2023-05-05T11:15:54.235Z,22.7304
2023-05-05T11:16:56.949Z,23.5560
2023-05-05T11:17:59.597Z,24.5566
2023-05-05T11:19:02.111Z,24.5872
2023-05-05T11:20:04.670Z,24.8090
2023-05-05T11:21:07.168Z,25.3486
2023-05-05T11:22:09.672Z,25.1230
2023-05-05T11:23:14.003Z,25.1327
2023-05-05T11:24:14.962Z,25.6567
2023-05-05T11:25:18.255Z,26.3015
2023-05-05T11:26:26.008Z,26.0826
2023-05-05T11:27:21.180Z,24.5729
2023-05-05T11:28:23.729Z,25.1475
2023-05-05T11:29:26.222Z,26.1586
2023-05-05T11:30:29.409Z,25.4575
2023-05-05T11:31:32.029Z,25.5744
2023-05-05T11:32:34.604Z,26.4038
2023-05-05T11:33:37.099Z,25.8785
2023-05-05T11:34:39.599Z,25.6291
2023-05-05T11:35:42.082Z,25.5369
2023-05-05T11:36:44.589Z,24.8629
2023-05-05T11:37:47.093Z,24.6408
2023-05-05T11:38:49.585Z,24.4053
2023-05-05T11:39:52.075Z,24.5987
2023-05-05T11:40:54.783Z,24.1636
2023-05-05T11:41:57.241Z,23.1480
2023-05-05T11:42:59.733Z,23.9127
2023-05-05T11:44:02.240Z,24.4491
2023-05-05T11:45:04.724Z,25.7014
2023-05-05T11:46:07.262Z,25.6021
2023-05-05T11:47:09.726Z,25.5232
2023-05-05T11:48:12.532Z,25.0441
2023-05-05T11:49:14.998Z,24.5127
2023-05-05T11:50:17.738Z,25.4108
2023-05-05T11:51:20.257Z,25.6602
2023-05-05T11:52:22.750Z,25.9192
2023-05-05T11:53:25.295Z,25.7438
2023-05-05T11:54:27.829Z,25.2837
2023-05-05T11:55:30.287Z,24.4441
2023-05-05T11:56:32.798Z,24.4198
2023-05-05T11:57:35.286Z,24.9128
2023-05-05T11:58:37.791Z,25.0551
2023-05-05T11:59:40.290Z,24.0959
2023-05-05T12:00:42.799Z,24.1244
2023-05-05T12:01:45.308Z,24.8792
2023-05-05T12:02:47.862Z,24.6114
2023-05-05T12:03:50.746Z,24.8140
2023-05-05T12:04:53.380Z,25.5570
2023-05-05T12:05:56.032Z,25.9477
2023-05-05T12:06:58.461Z,26.0573
2023-05-05T12:08:00.936Z,24.9532
2023-05-05T12:09:03.409Z,25.5169
2023-05-05T12:10:05.966Z,25.1673
2023-05-05T12:11:08.458Z,25.5950
2023-05-05T12:12:10.946Z,25.9858
2023-05-05T12:13:13.468Z,26.9247
2023-05-05T12:14:16.103Z,25.1231
2023-05-05T12:15:18.560Z,25.5583
2023-05-05T12:16:21.147Z,26.3047
2023-05-05T12:17:23.625Z,25.1926
2023-05-05T12:18:26.085Z,25.7442
2023-05-05T12:19:28.579Z,25.1770
2023-05-05T12:20:31.076Z,25.7365
2023-05-05T12:21:33.566Z,26.2983
2023-05-05T12:22:36.118Z,27.1436
2023-05-05T12:23:38.627Z,25.8988
2023-05-05T12:24:41.104Z,26.1595
2023-05-05T12:25:43.559Z,26.0000
2023-05-05T12:26:46.066Z,26.3859
2023-05-05T12:27:48.534Z,26.3201
2023-05-05T12:28:51.057Z,26.1215
2023-05-05T12:29:53.541Z,26.4530
2023-05-05T12:30:56.053Z,25.3460
2023-05-05T12:31:58.600Z,26.3711
2023-05-05T12:33:01.165Z,25.9147
2023-05-05T12:34:03.650Z,25.3655
2023-05-05T12:35:06.155Z,25.9266
2023-05-05T12:36:08.621Z,25.7604
2023-05-05T12:37:11.138Z,25.8121
2023-05-05T12:38:13.599Z,25.5415
2023-05-05T12:39:16.100Z,25.7340
2023-05-05T12:40:18.650Z,25.4125
2023-05-05T12:41:21.159Z,25.7259
2023-05-05T12:42:23.626Z,26.9591
2023-05-05T12:43:26.140Z,25.8053
2023-05-05T12:44:28.468Z,26.2034
2023-05-05T12:45:31.282Z,25.7494